Terminal Aerodrome Forecast
Issued by NWS Louisville, KY

Home | Current Version | Previous Version | Text Only | Print | Product List | Glossary On
Versions: 1 2 3 4 5 6 7 8 9 10 11 12 13 14 15 16 17 18
323
FTUS43 KLMK 262002 AAA
TAFBWG
TAF AMD
KBWG 262002Z 2620/2718 21012G19KT P6SM VCSH BKN045
     FM262300 21006KT P6SM BKN035
     FM270800 VRB03KT 6SM BR FEW025 SCT250
     FM271300 16006KT P6SM VCSH SCT035 BKN150=

USA.gov is the U.S. government's official web portal to all federal, state and local government web resources and services.